sensor_id;sensor_type;location;lat;lon;timestamp;temperature;humidity
5041;DHT22;2539;52.568;13.364;2023-04-15T00:03:07;7.90;99.90
5041;DHT22;2539;52.568;13.364;2023-04-15T00:10:27;7.90;99.90
5041;DHT22;2539;52.568;13.364;2023-04-15T00:15:20;8.00;99.90
5041;DHT22;2539;52.568;13.364;2023-04-15T00:17:49;7.90;99.90
5041;DHT22;2539;52.568;13.364;2023-04-15T00:20:16;7.90;99.90
5041;DHT22;2539;52.568;13.364;2023-04-15T00:27:37;7.90;99.90
5041;DHT22;2539;52.568;13.364;2023-04-15T00:30:04;7.90;99.90
5041;DHT22;2539;52.568;13.364;2023-04-15T00:34:57;7.90;99.90
5041;DHT22;2539;52.568;13.364;2023-04-15T00:39:50;7.90;99.90
5041;DHT22;2539;52.568;13.364;2023-04-15T00:42:17;7.90;99.90
5041;DHT22;2539;52.568;13.364;2023-04-15T00:54:32;7.80;99.90
5041;DHT22;2539;52.568;13.364;2023-04-15T00:59:24;7.80;99.90
5041;DHT22;2539;52.568;13.364;2023-04-15T01:01:50;7.80;99.90
5041;DHT22;2539;52.568;13.364;2023-04-15T01:06:42;7.80;99.90
5041;DHT22;2539;52.568;13.364;2023-04-15T01:11:36;7.80;99.90
5041;DHT22;2539;52.568;13.364;2023-04-15T01:16:28;7.80;99.90
5041;DHT22;2539;52.568;13.364;2023-04-15T01:21:21;7.80;99.90
5041;DHT22;2539;52.568;13.364;2023-04-15T01:23:48;7.80;99.90
5041;DHT22;2539;52.568;13.364;2023-04-15T01:26:15;7.80;99.90
5041;DHT22;2539;52.568;13.364;2023-04-15T01:31:11;7.80;99.90
5041;DHT22;2539;52.568;13.364;2023-04-15T01:33:40;7.80;99.90
5041;DHT22;2539;52.568;13.364;2023-04-15T01:36:08;7.80;99.90
5041;DHT22;2539;52.568;13.364;2023-04-15T01:38:36;7.80;99.90
5041;DHT22;2539;52.568;13.364;2023-04-15T01:41:02;7.80;99.90
5041;DHT22;2539;52.568;13.364;2023-04-15T01:43:35;7.80;99.90
5041;DHT22;2539;52.568;13.364;2023-04-15T01:48:29;7.80;99.90
5041;DHT22;2539;52.568;13.364;2023-04-15T01:50:55;7.80;99.90
5041;DHT22;2539;52.568;13.364;2023-04-15T01:53:24;7.80;99.90
5041;DHT22;2539;52.568;13.364;2023-04-15T01:55:50;7.80;99.90
5041;DHT22;2539;52.568;13.364;2023-04-15T01:58:17;7.80;99.90
5041;DHT22;2539;52.568;13.364;2023-04-15T02:00:44;7.90;99.90
5041;DHT22;2539;52.568;13.364;2023-04-15T02:03:10;7.90;99.90
5041;DHT22;2539;52.568;13.364;2023-04-15T02:05:36;7.90;99.90
5041;DHT22;2539;52.568;13.364;2023-04-15T02:10:29;7.90;99.90
5041;DHT22;2539;52.568;13.364;2023-04-15T02:12:56;7.90;99.90
5041;DHT22;2539;52.568;13.364;2023-04-15T02:15:22;7.90;99.90
5041;DHT22;2539;52.568;13.364;2023-04-15T02:17:48;7.90;99.90
5041;DHT22;2539;52.568;13.364;2023-04-15T02:20:18;7.90;99.90
5041;DHT22;2539;52.568;13.364;2023-04-15T02:22:46;7.90;99.90
5041;DHT22;2539;52.568;13.364;2023-04-15T02:30:11;7.80;99.90
5041;DHT22;2539;52.568;13.364;2023-04-15T02:35:06;7.90;99.90
5041;DHT22;2539;52.568;13.364;2023-04-15T02:37:33;7.90;99.90
5041;DHT22;2539;52.568;13.364;2023-04-15T02:40:07;7.90;99.90
5041;DHT22;2539;52.568;13.364;2023-04-15T02:42:34;7.90;99.90
5041;DHT22;2539;52.568;13.364;2023-04-15T02:45:01;7.90;99.90
5041;DHT22;2539;52.568;13.364;2023-04-15T02:47:27;7.80;99.90
5041;DHT22;2539;52.568;13.364;2023-04-15T02:49:53;8.00;99.90
5041;DHT22;2539;52.568;13.364;2023-04-15T02:52:19;7.90;99.90
5041;DHT22;2539;52.568;13.364;2023-04-15T02:54:46;7.90;99.90
5041;DHT22;2539;52.568;13.364;2023-04-15T02:57:12;7.90;99.90
5041;DHT22;2539;52.568;13.364;2023-04-15T02:59:38;7.90;99.90
5041;DHT22;2539;52.568;13.364;2023-04-15T03:02:05;7.90;99.90
5041;DHT22;2539;52.568;13.364;2023-04-15T03:04:32;7.90;99.90
5041;DHT22;2539;52.568;13.364;2023-04-15T03:07:00;7.90;99.90
5041;DHT22;2539;52.568;13.364;2023-04-15T03:09:26;7.90;99.90
5041;DHT22;2539;52.568;13.364;2023-04-15T03:11:53;8.00;99.90
5041;DHT22;2539;52.568;13.364;2023-04-15T03:14:19;8.00;99.90
5041;DHT22;2539;52.568;13.364;2023-04-15T03:16:45;8.00;99.90
5041;DHT22;2539;52.568;13.364;2023-04-15T03:19:10;8.00;99.90
5041;DHT22;2539;52.568;13.364;2023-04-15T03:21:36;8.00;99.90
5041;DHT22;2539;52.568;13.364;2023-04-15T03:24:02;8.00;99.90
5041;DHT22;2539;52.568;13.364;2023-04-15T03:26:29;8.00;99.90
5041;DHT22;2539;52.568;13.364;2023-04-15T03:28:57;7.90;99.90
5041;DHT22;2539;52.568;13.364;2023-04-15T03:31:23;8.00;99.90
5041;DHT22;2539;52.568;13.364;2023-04-15T03:33:49;8.00;99.90
5041;DHT22;2539;52.568;13.364;2023-04-15T03:36:16;8.00;99.90
5041;DHT22;2539;52.568;13.364;2023-04-15T03:38:42;8.00;99.90
5041;DHT22;2539;52.568;13.364;2023-04-15T03:41:08;8.00;99.90
5041;DHT22;2539;52.568;13.364;2023-04-15T03:43:35;8.00;99.90
5041;DHT22;2539;52.568;13.364;2023-04-15T03:48:28;8.10;99.90
5041;DHT22;2539;52.568;13.364;2023-04-15T03:50:54;8.00;99.90
5041;DHT22;2539;52.568;13.364;2023-04-15T03:53:21;8.10;99.90
5041;DHT22;2539;52.568;13.364;2023-04-15T03:55:48;8.10;99.90
5041;DHT22;2539;52.568;13.364;2023-04-15T03:58:14;8.10;99.90
5041;DHT22;2539;52.568;13.364;2023-04-15T04:00:40;8.30;99.90
5041;DHT22;2539;52.568;13.364;2023-04-15T04:03:07;8.20;99.90
5041;DHT22;2539;52.568;13.364;2023-04-15T04:05:33;8.10;99.90
5041;DHT22;2539;52.568;13.364;2023-04-15T04:08:02;8.10;99.90
5041;DHT22;2539;52.568;13.364;2023-04-15T04:10:28;8.10;99.90
5041;DHT22;2539;52.568;13.364;2023-04-15T04:12:54;8.10;99.90
5041;DHT22;2539;52.568;13.364;2023-04-15T04:15:20;8.10;99.90
5041;DHT22;2539;52.568;13.364;2023-04-15T04:17:47;8.10;99.90
5041;DHT22;2539;52.568;13.364;2023-04-15T04:22:40;8.20;99.90
5041;DHT22;2539;52.568;13.364;2023-04-15T04:25:07;8.20;99.90
5041;DHT22;2539;52.568;13.364;2023-04-15T04:27:33;8.10;99.90
5041;DHT22;2539;52.568;13.364;2023-04-15T04:30:00;8.20;99.90
5041;DHT22;2539;52.568;13.364;2023-04-15T04:32:27;8.20;99.90
5041;DHT22;2539;52.568;13.364;2023-04-15T04:34:53;8.20;99.90
5041;DHT22;2539;52.568;13.364;2023-04-15T04:37:19;8.20;99.90
5041;DHT22;2539;52.568;13.364;2023-04-15T04:39:45;8.20;99.90
5041;DHT22;2539;52.568;13.364;2023-04-15T04:42:12;8.30;99.90
5041;DHT22;2539;52.568;13.364;2023-04-15T04:44:37;8.20;99.90
5041;DHT22;2539;52.568;13.364;2023-04-15T04:47:03;8.20;99.90
5041;DHT22;2539;52.568;13.364;2023-04-15T04:49:29;8.40;99.90
5041;DHT22;2539;52.568;13.364;2023-04-15T04:51:54;8.30;99.90
5041;DHT22;2539;52.568;13.364;2023-04-15T04:54:21;8.20;99.90
5041;DHT22;2539;52.568;13.364;2023-04-15T04:56:47;8.30;99.90
5041;DHT22;2539;52.568;13.364;2023-04-15T04:59:14;8.30;99.90
5041;DHT22;2539;52.568;13.364;2023-04-15T05:01:40;8.30;99.90
5041;DHT22;2539;52.568;13.364;2023-04-15T05:04:07;8.40;99.90
5041;DHT22;2539;52.568;13.364;2023-04-15T05:06:33;8.40;99.90
5041;DHT22;2539;52.568;13.364;2023-04-15T05:09:02;8.40;99.90
5041;DHT22;2539;52.568;13.364;2023-04-15T05:11:28;8.40;99.90
5041;DHT22;2539;52.568;13.364;2023-04-15T05:13:54;8.40;99.90
5041;DHT22;2539;52.568;13.364;2023-04-15T05:16:20;8.50;99.90
5041;DHT22;2539;52.568;13.364;2023-04-15T05:18:46;8.50;99.90
5041;DHT22;2539;52.568;13.364;2023-04-15T05:21:11;8.40;99.90
5041;DHT22;2539;52.568;13.364;2023-04-15T05:23:38;8.50;99.90
5041;DHT22;2539;52.568;13.364;2023-04-15T05:26:04;8.50;99.90
5041;DHT22;2539;52.568;13.364;2023-04-15T05:28:31;8.70;99.90
5041;DHT22;2539;52.568;13.364;2023-04-15T05:30:57;8.60;99.90
5041;DHT22;2539;52.568;13.364;2023-04-15T05:33:24;8.60;99.90
5041;DHT22;2539;52.568;13.364;2023-04-15T05:35:50;8.60;99.90
5041;DHT22;2539;52.568;13.364;2023-04-15T05:38:16;8.60;99.90
5041;DHT22;2539;52.568;13.364;2023-04-15T05:40:43;8.70;99.90
5041;DHT22;2539;52.568;13.364;2023-04-15T05:43:09;8.60;99.90
5041;DHT22;2539;52.568;13.364;2023-04-15T05:45:35;8.60;99.90
5041;DHT22;2539;52.568;13.364;2023-04-15T05:48:01;8.70;99.90
5041;DHT22;2539;52.568;13.364;2023-04-15T05:50:28;8.80;99.90
5041;DHT22;2539;52.568;13.364;2023-04-15T05:52:54;8.80;99.90
5041;DHT22;2539;52.568;13.364;2023-04-15T05:55:21;8.80;99.90
5041;DHT22;2539;52.568;13.364;2023-04-15T05:57:47;8.80;99.90
5041;DHT22;2539;52.568;13.364;2023-04-15T06:00:13;9.00;99.90
5041;DHT22;2539;52.568;13.364;2023-04-15T06:02:40;9.00;99.90
5041;DHT22;2539;52.568;13.364;2023-04-15T06:05:07;9.10;99.90
5041;DHT22;2539;52.568;13.364;2023-04-15T06:07:35;9.10;99.90
5041;DHT22;2539;52.568;13.364;2023-04-15T06:10:03;9.30;99.90
5041;DHT22;2539;52.568;13.364;2023-04-15T06:12:29;9.30;99.90
5041;DHT22;2539;52.568;13.364;2023-04-15T06:14:55;9.40;99.90
5041;DHT22;2539;52.568;13.364;2023-04-15T06:17:22;9.30;99.90
5041;DHT22;2539;52.568;13.364;2023-04-15T06:19:48;9.40;99.90
5041;DHT22;2539;52.568;13.364;2023-04-15T06:22:16;9.50;99.90
5041;DHT22;2539;52.568;13.364;2023-04-15T06:24:42;9.50;99.90
5041;DHT22;2539;52.568;13.364;2023-04-15T06:27:09;9.50;99.90
5041;DHT22;2539;52.568;13.364;2023-04-15T06:29:35;9.50;99.90
5041;DHT22;2539;52.568;13.364;2023-04-15T06:32:01;9.60;99.90
5041;DHT22;2539;52.568;13.364;2023-04-15T06:34:27;9.60;99.90
5041;DHT22;2539;52.568;13.364;2023-04-15T06:36:54;9.50;99.90
5041;DHT22;2539;52.568;13.364;2023-04-15T06:39:20;9.70;99.90
5041;DHT22;2539;52.568;13.364;2023-04-15T06:41:46;9.70;99.90
5041;DHT22;2539;52.568;13.364;2023-04-15T06:44:13;9.80;99.90
5041;DHT22;2539;52.568;13.364;2023-04-15T06:46:39;9.80;99.90
5041;DHT22;2539;52.568;13.364;2023-04-15T06:49:05;10.00;99.90
5041;DHT22;2539;52.568;13.364;2023-04-15T06:51:34;10.00;99.90
5041;DHT22;2539;52.568;13.364;2023-04-15T06:54:00;10.10;99.90
5041;DHT22;2539;52.568;13.364;2023-04-15T06:56:27;10.20;99.90
5041;DHT22;2539;52.568;13.364;2023-04-15T06:58:53;10.30;99.90
5041;DHT22;2539;52.568;13.364;2023-04-15T07:01:20;10.20;99.90
5041;DHT22;2539;52.568;13.364;2023-04-15T07:03:46;10.10;99.90
5041;DHT22;2539;52.568;13.364;2023-04-15T07:06:12;10.00;99.90
5041;DHT22;2539;52.568;13.364;2023-04-15T07:08:39;10.00;99.90
5041;DHT22;2539;52.568;13.364;2023-04-15T07:11:06;10.00;99.90
5041;DHT22;2539;52.568;13.364;2023-04-15T07:13:32;10.10;99.90
5041;DHT22;2539;52.568;13.364;2023-04-15T07:15:59;10.10;99.90
5041;DHT22;2539;52.568;13.364;2023-04-15T07:18:25;10.10;99.90
5041;DHT22;2539;52.568;13.364;2023-04-15T07:20:51;10.20;99.90
5041;DHT22;2539;52.568;13.364;2023-04-15T07:23:18;10.20;99.90
5041;DHT22;2539;52.568;13.364;2023-04-15T07:28:10;10.20;99.90
5041;DHT22;2539;52.568;13.364;2023-04-15T07:30:37;10.10;99.90
5041;DHT22;2539;52.568;13.364;2023-04-15T07:33:03;10.10;99.90
5041;DHT22;2539;52.568;13.364;2023-04-15T07:35:29;10.10;99.90
5041;DHT22;2539;52.568;13.364;2023-04-15T07:37:56;10.00;99.90
5041;DHT22;2539;52.568;13.364;2023-04-15T07:40:22;10.20;99.90
5041;DHT22;2539;52.568;13.364;2023-04-15T07:42:49;10.30;99.90
5041;DHT22;2539;52.568;13.364;2023-04-15T07:45:15;10.50;99.90
5041;DHT22;2539;52.568;13.364;2023-04-15T07:47:41;10.50;99.90
5041;DHT22;2539;52.568;13.364;2023-04-15T07:50:09;10.40;99.90
5041;DHT22;2539;52.568;13.364;2023-04-15T07:52:36;10.30;99.90
5041;DHT22;2539;52.568;13.364;2023-04-15T07:55:06;10.20;99.90
5041;DHT22;2539;52.568;13.364;2023-04-15T07:57:36;10.30;99.90
5041;DHT22;2539;52.568;13.364;2023-04-15T08:00:03;10.20;99.90
5041;DHT22;2539;52.568;13.364;2023-04-15T08:02:30;10.30;99.90
5041;DHT22;2539;52.568;13.364;2023-04-15T08:04:57;10.30;99.90
5041;DHT22;2539;52.568;13.364;2023-04-15T08:07:24;10.20;99.90
5041;DHT22;2539;52.568;13.364;2023-04-15T08:09:51;10.30;99.90
5041;DHT22;2539;52.568;13.364;2023-04-15T08:12:17;10.40;99.90
5041;DHT22;2539;52.568;13.364;2023-04-15T08:14:43;10.20;99.90
5041;DHT22;2539;52.568;13.364;2023-04-15T08:17:10;10.20;99.90
5041;DHT22;2539;52.568;13.364;2023-04-15T08:19:37;10.20;99.90
5041;DHT22;2539;52.568;13.364;2023-04-15T08:22:03;10.10;99.90
5041;DHT22;2539;52.568;13.364;2023-04-15T08:24:30;10.10;99.90
5041;DHT22;2539;52.568;13.364;2023-04-15T08:26:56;10.10;99.90
5041;DHT22;2539;52.568;13.364;2023-04-15T08:29:23;10.10;99.90
5041;DHT22;2539;52.568;13.364;2023-04-15T08:31:49;10.10;99.90
5041;DHT22;2539;52.568;13.364;2023-04-15T08:34:15;10.10;99.90
5041;DHT22;2539;52.568;13.364;2023-04-15T08:36:41;10.20;99.90
5041;DHT22;2539;52.568;13.364;2023-04-15T08:39:07;10.20;99.90
5041;DHT22;2539;52.568;13.364;2023-04-15T08:41:51;10.40;99.90
5041;DHT22;2539;52.568;13.364;2023-04-15T08:44:17;10.60;99.90
5041;DHT22;2539;52.568;13.364;2023-04-15T08:46:44;10.70;99.90
5041;DHT22;2539;52.568;13.364;2023-04-15T08:49:11;10.70;99.90
5041;DHT22;2539;52.568;13.364;2023-04-15T08:51:40;10.60;99.90
5041;DHT22;2539;52.568;13.364;2023-04-15T08:54:07;10.50;99.90
5041;DHT22;2539;52.568;13.364;2023-04-15T08:56:34;10.50;99.90
5041;DHT22;2539;52.568;13.364;2023-04-15T08:59:01;10.60;99.90
5041;DHT22;2539;52.568;13.364;2023-04-15T09:01:27;10.50;99.90
5041;DHT22;2539;52.568;13.364;2023-04-15T09:03:55;10.60;99.90
5041;DHT22;2539;52.568;13.364;2023-04-15T09:06:23;10.50;99.90
5041;DHT22;2539;52.568;13.364;2023-04-15T09:08:51;10.50;99.90
5041;DHT22;2539;52.568;13.364;2023-04-15T09:11:17;10.50;99.90
5041;DHT22;2539;52.568;13.364;2023-04-15T09:13:44;10.50;99.90
5041;DHT22;2539;52.568;13.364;2023-04-15T09:16:12;10.90;99.90
5041;DHT22;2539;52.568;13.364;2023-04-15T09:18:39;10.40;99.90
5041;DHT22;2539;52.568;13.364;2023-04-15T09:21:10;10.40;99.90
5041;DHT22;2539;52.568;13.364;2023-04-15T09:23:39;10.40;99.90
5041;DHT22;2539;52.568;13.364;2023-04-15T09:26:06;8.20;99.90
5041;DHT22;2539;52.568;13.364;2023-04-15T09:28:40;10.50;99.90
5041;DHT22;2539;52.568;13.364;2023-04-15T09:31:07;10.50;99.90
5041;DHT22;2539;52.568;13.364;2023-04-15T09:33:35;10.60;99.90
5041;DHT22;2539;52.568;13.364;2023-04-15T09:36:18;10.70;99.90
5041;DHT22;2539;52.568;13.364;2023-04-15T09:38:57;10.70;99.90
5041;DHT22;2539;52.568;13.364;2023-04-15T09:41:24;10.80;99.90
5041;DHT22;2539;52.568;13.364;2023-04-15T09:43:51;10.80;99.90
5041;DHT22;2539;52.568;13.364;2023-04-15T09:46:17;13.10;99.90
5041;DHT22;2539;52.568;13.364;2023-04-15T09:51:11;10.80;99.90
5041;DHT22;2539;52.568;13.364;2023-04-15T09:53:37;10.80;99.90
5041;DHT22;2539;52.568;13.364;2023-04-15T09:56:03;10.70;99.90
5041;DHT22;2539;52.568;13.364;2023-04-15T09:58:33;10.70;99.90
5041;DHT22;2539;52.568;13.364;2023-04-15T10:01:02;10.60;99.90
5041;DHT22;2539;52.568;13.364;2023-04-15T10:03:31;10.60;99.90
5041;DHT22;2539;52.568;13.364;2023-04-15T10:06:00;10.50;99.90
5041;DHT22;2539;52.568;13.364;2023-04-15T10:08:29;10.40;99.90
5041;DHT22;2539;52.568;13.364;2023-04-15T10:10:55;10.40;99.90
5041;DHT22;2539;52.568;13.364;2023-04-15T10:13:24;10.30;99.90
5041;DHT22;2539;52.568;13.364;2023-04-15T10:16:00;10.20;99.90
5041;DHT22;2539;52.568;13.364;2023-04-15T10:18:33;10.20;99.90
5041;DHT22;2539;52.568;13.364;2023-04-15T10:20:59;10.20;99.90
5041;DHT22;2539;52.568;13.364;2023-04-15T10:23:25;10.20;99.90
5041;DHT22;2539;52.568;13.364;2023-04-15T10:25:53;10.20;99.90
5041;DHT22;2539;52.568;13.364;2023-04-15T10:28:20;10.10;99.90
5041;DHT22;2539;52.568;13.364;2023-04-15T10:30:49;10.10;99.90
5041;DHT22;2539;52.568;13.364;2023-04-15T10:33:19;10.10;99.90
5041;DHT22;2539;52.568;13.364;2023-04-15T10:35:47;9.90;99.90
5041;DHT22;2539;52.568;13.364;2023-04-15T10:41:27;10.10;99.90
5041;DHT22;2539;52.568;13.364;2023-04-15T10:44:00;10.20;99.90
5041;DHT22;2539;52.568;13.364;2023-04-15T10:46:40;10.10;99.90
5041;DHT22;2539;52.568;13.364;2023-04-15T10:49:07;10.10;99.90
5041;DHT22;2539;52.568;13.364;2023-04-15T10:51:48;10.20;99.90
5041;DHT22;2539;52.568;13.364;2023-04-15T10:54:32;10.20;99.90
5041;DHT22;2539;52.568;13.364;2023-04-15T10:59:29;10.10;99.90
5041;DHT22;2539;52.568;13.364;2023-04-15T11:02:00;10.10;99.90
5041;DHT22;2539;52.568;13.364;2023-04-15T11:07:37;10.40;99.90
5041;DHT22;2539;52.568;13.364;2023-04-15T11:15:41;10.40;99.90
5041;DHT22;2539;52.568;13.364;2023-04-15T11:18:12;10.30;99.90
5041;DHT22;2539;52.568;13.364;2023-04-15T11:20:40;10.30;99.90
5041;DHT22;2539;52.568;13.364;2023-04-15T11:23:08;10.30;99.90
5041;DHT22;2539;52.568;13.364;2023-04-15T11:25:35;10.30;99.90
5041;DHT22;2539;52.568;13.364;2023-04-15T11:28:05;10.20;99.90
5041;DHT22;2539;52.568;13.364;2023-04-15T11:30:35;10.20;99.90
5041;DHT22;2539;52.568;13.364;2023-04-15T11:33:04;10.20;99.90
5041;DHT22;2539;52.568;13.364;2023-04-15T11:35:31;10.10;99.90
5041;DHT22;2539;52.568;13.364;2023-04-15T11:37:57;10.10;99.90
5041;DHT22;2539;52.568;13.364;2023-04-15T11:40:29;10.20;99.90
5041;DHT22;2539;52.568;13.364;2023-04-15T11:43:10;10.20;99.90
5041;DHT22;2539;52.568;13.364;2023-04-15T11:45:47;10.20;99.90
5041;DHT22;2539;52.568;13.364;2023-04-15T11:48:13;10.20;99.90
5041;DHT22;2539;52.568;13.364;2023-04-15T11:50:40;10.10;99.90
5041;DHT22;2539;52.568;13.364;2023-04-15T11:53:08;10.10;99.90
5041;DHT22;2539;52.568;13.364;2023-04-15T11:55:46;10.20;99.90
5041;DHT22;2539;52.568;13.364;2023-04-15T11:58:14;10.20;99.90
5041;DHT22;2539;52.568;13.364;2023-04-15T12:00:47;10.20;99.90
5041;DHT22;2539;52.568;13.364;2023-04-15T12:03:17;10.20;99.90
5041;DHT22;2539;52.568;13.364;2023-04-15T12:06:20;10.10;99.90
5041;DHT22;2539;52.568;13.364;2023-04-15T12:11:18;10.10;99.90
5041;DHT22;2539;52.568;13.364;2023-04-15T12:13:49;10.10;99.90
5041;DHT22;2539;52.568;13.364;2023-04-15T12:16:16;10.10;99.90
5041;DHT22;2539;52.568;13.364;2023-04-15T12:18:50;10.10;99.90
5041;DHT22;2539;52.568;13.364;2023-04-15T12:21:18;10.20;99.90
5041;DHT22;2539;52.568;13.364;2023-04-15T12:23:55;10.30;99.90
5041;DHT22;2539;52.568;13.364;2023-04-15T12:26:26;10.30;99.90
5041;DHT22;2539;52.568;13.364;2023-04-15T12:28:54;9.60;99.90
5041;DHT22;2539;52.568;13.364;2023-04-15T12:31:21;10.30;99.90
5041;DHT22;2539;52.568;13.364;2023-04-15T12:33:48;10.30;99.90
5041;DHT22;2539;52.568;13.364;2023-04-15T12:36:15;10.30;99.90
5041;DHT22;2539;52.568;13.364;2023-04-15T12:41:08;10.30;99.90
5041;DHT22;2539;52.568;13.364;2023-04-15T12:43:34;10.30;99.90
5041;DHT22;2539;52.568;13.364;2023-04-15T12:46:01;10.20;99.90
5041;DHT22;2539;52.568;13.364;2023-04-15T12:48:27;10.20;99.90
5041;DHT22;2539;52.568;13.364;2023-04-15T12:50:53;10.20;99.90
5041;DHT22;2539;52.568;13.364;2023-04-15T12:53:20;10.20;99.90
5041;DHT22;2539;52.568;13.364;2023-04-15T12:55:46;10.30;99.90
5041;DHT22;2539;52.568;13.364;2023-04-15T12:58:13;10.20;99.90
5041;DHT22;2539;52.568;13.364;2023-04-15T13:00:39;10.30;99.90
5041;DHT22;2539;52.568;13.364;2023-04-15T13:03:05;10.10;99.90
5041;DHT22;2539;52.568;13.364;2023-04-15T13:05:32;10.20;99.90
5041;DHT22;2539;52.568;13.364;2023-04-15T13:07:58;10.20;99.90
5041;DHT22;2539;52.568;13.364;2023-04-15T13:10:24;10.50;99.90
5041;DHT22;2539;52.568;13.364;2023-04-15T13:12:51;10.20;99.90
5041;DHT22;2539;52.568;13.364;2023-04-15T13:15:18;10.30;99.90
5041;DHT22;2539;52.568;13.364;2023-04-15T13:17:47;10.20;99.90
5041;DHT22;2539;52.568;13.364;2023-04-15T13:20:14;10.20;99.90
5041;DHT22;2539;52.568;13.364;2023-04-15T13:22:40;10.20;99.90
5041;DHT22;2539;52.568;13.364;2023-04-15T13:25:07;10.20;99.90
5041;DHT22;2539;52.568;13.364;2023-04-15T13:27:34;10.20;99.90
5041;DHT22;2539;52.568;13.364;2023-04-15T13:32:27;10.30;99.90
5041;DHT22;2539;52.568;13.364;2023-04-15T13:34:53;10.20;99.90
5041;DHT22;2539;52.568;13.364;2023-04-15T13:37:25;10.20;99.90
5041;DHT22;2539;52.568;13.364;2023-04-15T13:39:52;10.20;99.90
5041;DHT22;2539;52.568;13.364;2023-04-15T13:42:18;10.90;99.90
5041;DHT22;2539;52.568;13.364;2023-04-15T13:44:44;10.30;99.90
5041;DHT22;2539;52.568;13.364;2023-04-15T13:47:11;10.30;99.90
5041;DHT22;2539;52.568;13.364;2023-04-15T13:49:38;10.20;99.90
5041;DHT22;2539;52.568;13.364;2023-04-15T13:52:04;10.30;99.90
5041;DHT22;2539;52.568;13.364;2023-04-15T13:54:30;10.20;99.90
5041;DHT22;2539;52.568;13.364;2023-04-15T13:56:57;10.20;99.90
5041;DHT22;2539;52.568;13.364;2023-04-15T13:59:23;10.20;99.90
5041;DHT22;2539;52.568;13.364;2023-04-15T14:01:49;10.20;99.90
5041;DHT22;2539;52.568;13.364;2023-04-15T14:06:42;10.20;99.90
5041;DHT22;2539;52.568;13.364;2023-04-15T14:09:09;10.20;99.90
5041;DHT22;2539;52.568;13.364;2023-04-15T14:11:37;10.20;99.90
5041;DHT22;2539;52.568;13.364;2023-04-15T14:14:04;10.20;99.90
5041;DHT22;2539;52.568;13.364;2023-04-15T14:16:33;10.20;99.90
5041;DHT22;2539;52.568;13.364;2023-04-15T14:19:01;10.30;99.90
5041;DHT22;2539;52.568;13.364;2023-04-15T14:21:27;10.30;99.90
5041;DHT22;2539;52.568;13.364;2023-04-15T14:23:53;10.30;99.90
5041;DHT22;2539;52.568;13.364;2023-04-15T14:26:20;10.20;99.90
5041;DHT22;2539;52.568;13.364;2023-04-15T14:28:46;10.30;99.90
5041;DHT22;2539;52.568;13.364;2023-04-15T14:31:13;10.30;99.90
5041;DHT22;2539;52.568;13.364;2023-04-15T14:33:39;10.30;99.90
5041;DHT22;2539;52.568;13.364;2023-04-15T14:36:07;10.30;99.90
5041;DHT22;2539;52.568;13.364;2023-04-15T14:38:34;10.30;99.90
5041;DHT22;2539;52.568;13.364;2023-04-15T14:41:06;10.30;99.90
5041;DHT22;2539;52.568;13.364;2023-04-15T14:43:33;10.30;99.90
5041;DHT22;2539;52.568;13.364;2023-04-15T14:45:59;10.30;99.90
5041;DHT22;2539;52.568;13.364;2023-04-15T14:48:27;10.20;99.90
5041;DHT22;2539;52.568;13.364;2023-04-15T14:50:53;10.20;99.90
5041;DHT22;2539;52.568;13.364;2023-04-15T14:53:19;10.40;99.90
5041;DHT22;2539;52.568;13.364;2023-04-15T14:55:45;10.20;99.90
5041;DHT22;2539;52.568;13.364;2023-04-15T14:58:12;10.30;99.90
5041;DHT22;2539;52.568;13.364;2023-04-15T15:00:38;10.30;99.90
5041;DHT22;2539;52.568;13.364;2023-04-15T15:03:10;10.30;99.90
5041;DHT22;2539;52.568;13.364;2023-04-15T15:05:41;10.30;99.90
5041;DHT22;2539;52.568;13.364;2023-04-15T15:08:08;10.30;99.90
5041;DHT22;2539;52.568;13.364;2023-04-15T15:10:35;10.30;99.90
5041;DHT22;2539;52.568;13.364;2023-04-15T15:13:03;10.30;99.90
5041;DHT22;2539;52.568;13.364;2023-04-15T15:15:31;10.30;99.90
5041;DHT22;2539;52.568;13.364;2023-04-15T15:20:25;10.30;99.90
5041;DHT22;2539;52.568;13.364;2023-04-15T15:25:18;10.20;99.90
5041;DHT22;2539;52.568;13.364;2023-04-15T15:30:11;10.20;99.90
5041;DHT22;2539;52.568;13.364;2023-04-15T15:32:39;10.10;99.90
5041;DHT22;2539;52.568;13.364;2023-04-15T15:37:34;10.10;99.90
5041;DHT22;2539;52.568;13.364;2023-04-15T15:42:30;10.10;99.90
5041;DHT22;2539;52.568;13.364;2023-04-15T15:44:57;10.10;99.90
5041;DHT22;2539;52.568;13.364;2023-04-15T15:47:23;10.10;99.90
5041;DHT22;2539;52.568;13.364;2023-04-15T15:49:52;10.10;99.90
5041;DHT22;2539;52.568;13.364;2023-04-15T15:52:18;10.10;99.90
5041;DHT22;2539;52.568;13.364;2023-04-15T15:59:38;10.10;99.90
5041;DHT22;2539;52.568;13.364;2023-04-15T16:02:12;10.10;99.90
5041;DHT22;2539;52.568;13.364;2023-04-15T16:04:39;10.10;99.90
5041;DHT22;2539;52.568;13.364;2023-04-15T16:14:28;10.10;99.90
5041;DHT22;2539;52.568;13.364;2023-04-15T16:21:48;10.00;99.90
5041;DHT22;2539;52.568;13.364;2023-04-15T16:26:40;10.00;99.90
5041;DHT22;2539;52.568;13.364;2023-04-15T16:29:06;10.00;99.90
5041;DHT22;2539;52.568;13.364;2023-04-15T16:33:59;10.00;99.90
5041;DHT22;2539;52.568;13.364;2023-04-15T16:38:52;10.00;99.90
5041;DHT22;2539;52.568;13.364;2023-04-15T16:41:18;10.00;99.90
5041;DHT22;2539;52.568;13.364;2023-04-15T16:55:56;10.00;99.90
5041;DHT22;2539;52.568;13.364;2023-04-15T16:58:23;10.00;99.90
5041;DHT22;2539;52.568;13.364;2023-04-15T17:00:49;10.00;99.90
5041;DHT22;2539;52.568;13.364;2023-04-15T17:03:15;9.90;99.90
5041;DHT22;2539;52.568;13.364;2023-04-15T17:05:41;10.00;99.90
5041;DHT22;2539;52.568;13.364;2023-04-15T17:08:07;10.00;99.90
5041;DHT22;2539;52.568;13.364;2023-04-15T17:10:33;10.00;99.90
5041;DHT22;2539;52.568;13.364;2023-04-15T17:13:01;10.00;99.90
5041;DHT22;2539;52.568;13.364;2023-04-15T17:15:27;10.00;99.90
5041;DHT22;2539;52.568;13.364;2023-04-15T17:17:53;10.00;99.90
5041;DHT22;2539;52.568;13.364;2023-04-15T17:20:20;10.00;99.90
5041;DHT22;2539;52.568;13.364;2023-04-15T17:22:47;10.00;99.90
5041;DHT22;2539;52.568;13.364;2023-04-15T17:30:07;10.00;99.90
5041;DHT22;2539;52.568;13.364;2023-04-15T17:35:02;9.90;99.90
5041;DHT22;2539;52.568;13.364;2023-04-15T17:37:34;9.90;99.90
5041;DHT22;2539;52.568;13.364;2023-04-15T17:42:27;10.00;99.90
5041;DHT22;2539;52.568;13.364;2023-04-15T17:57:08;9.90;99.90
5041;DHT22;2539;52.568;13.364;2023-04-15T17:59:34;9.90;99.90
5041;DHT22;2539;52.568;13.364;2023-04-15T18:06:54;9.80;99.90
5041;DHT22;2539;52.568;13.364;2023-04-15T18:24:02;9.80;99.90
5041;DHT22;2539;52.568;13.364;2023-04-15T18:28:55;9.80;99.90
5041;DHT22;2539;52.568;13.364;2023-04-15T18:33:46;9.80;99.90
5041;DHT22;2539;52.568;13.364;2023-04-15T18:41:05;9.70;99.90
5041;DHT22;2539;52.568;13.364;2023-04-15T18:45:58;9.80;99.90
5041;DHT22;2539;52.568;13.364;2023-04-15T18:50:53;9.80;99.90
5041;DHT22;2539;52.568;13.364;2023-04-15T18:58:13;9.70;99.90
5041;DHT22;2539;52.568;13.364;2023-04-15T19:03:09;9.70;99.90
5041;DHT22;2539;52.568;13.364;2023-04-15T19:05:36;9.70;99.90
5041;DHT22;2539;52.568;13.364;2023-04-15T19:08:02;9.70;99.90
5041;DHT22;2539;52.568;13.364;2023-04-15T19:15:22;9.60;99.90
5041;DHT22;2539;52.568;13.364;2023-04-15T19:20:15;9.60;99.90
5041;DHT22;2539;52.568;13.364;2023-04-15T19:30:07;9.60;99.90